Time;durP1;ratioP1;P1;durP2;ratioP2;P2;SDS_P1;SDS_P2;PMS_P1;PMS_P2;Temp;Humidity;BMP_temperature;BMP_pressure;BME280_temperature;BME280_humidity;BME280_pressure;Samples;Min_cycle;Max_cycle;Signal;HPM_P1;HPM_P2
2023/12/08 00:00:51;;;;;;;26.63;9.93;;;1.40;99.90;;;;;;4121392;28;20042;-79
2023/12/08 00:02:51;;;;;;;22.85;10.13;;;1.30;99.90;;;;;;4129440;28;20500;-79
2023/12/08 00:04:54;;;;;;;21.45;10.27;;;1.40;99.90;;;;;;4129322;28;20043;-78
2023/12/08 00:06:55;;;;;;;23.63;10.05;;;1.30;99.90;;;;;;4128227;28;20054;-79
2023/12/08 00:08:56;;;;;;;23.05;10.70;;;1.30;99.90;;;;;;4113488;28;20047;-79
2023/12/08 00:11:07;;;;;;;24.80;9.65;;;1.30;99.90;;;;;;4117967;28;20440;-79
2023/12/08 00:13:08;;;;;;;24.08;10.25;;;1.30;99.90;;;;;;4111361;28;20039;-79
2023/12/08 00:15:14;;;;;;;23.38;10.20;;;1.30;99.90;;;;;;4110718;28;20451;-79
2023/12/08 00:17:15;;;;;;;21.88;9.50;;;1.30;99.90;;;;;;4116143;28;20066;-79
2023/12/08 00:19:17;;;;;;;23.88;9.65;;;1.30;99.90;;;;;;4111568;28;20044;-79
2023/12/08 00:21:18;;;;;;;25.85;11.55;;;1.30;99.90;;;;;;4120053;28;20099;-79
2023/12/08 00:23:20;;;;;;;20.58;9.55;;;1.30;99.90;;;;;;4127408;28;20050;-79
2023/12/08 00:25:22;;;;;;;20.20;8.63;;;1.30;99.90;;;;;;4127676;28;20057;-79
2023/12/08 00:27:24;;;;;;;20.05;9.32;;;1.30;99.90;;;;;;4127010;28;20411;-79
2023/12/08 00:29:27;;;;;;;20.95;9.15;;;1.30;99.90;;;;;;4126968;28;20074;-79
2023/12/08 00:31:29;;;;;;;20.08;9.13;;;1.30;99.90;;;;;;4116518;28;20039;-80
2023/12/08 00:33:31;;;;;;;24.33;10.23;;;1.30;99.90;;;;;;4112581;28;20050;-79
2023/12/08 00:35:32;;;;;;;23.13;10.63;;;1.30;99.90;;;;;;4126752;28;20042;-79
2023/12/08 00:37:45;;;;;;;21.33;10.27;;;1.30;99.90;;;;;;4126504;28;20063;-79
2023/12/08 00:39:46;;;;;;;22.15;9.13;;;1.30;99.90;;;;;;4110625;28;20082;-79
2023/12/08 00:41:49;;;;;;;20.33;8.68;;;1.30;99.90;;;;;;4110514;28;20054;-79
2023/12/08 00:43:51;;;;;;;23.17;9.93;;;1.30;99.90;;;;;;4111263;28;20054;-79
2023/12/08 00:45:51;;;;;;;22.50;11.05;;;2.00;99.90;;;;;;4111698;28;20477;-79
2023/12/08 00:47:52;;;;;;;22.48;9.90;;;1.30;99.90;;;;;;4110685;28;20047;-79
2023/12/08 00:49:53;;;;;;;20.58;9.02;;;1.30;99.90;;;;;;4110929;28;20054;-79
2023/12/08 00:51:53;;;;;;;22.38;10.30;;;1.30;99.90;;;;;;4112407;28;20050;-79
2023/12/08 00:53:55;;;;;;;19.83;9.70;;;1.30;99.90;;;;;;4110447;29;20058;-79
2023/12/08 00:55:56;;;;;;;21.08;9.88;;;1.30;99.90;;;;;;4110553;28;20054;-79
2023/12/08 00:57:57;;;;;;;20.23;9.05;;;1.30;99.90;;;;;;4111319;28;20070;-79
2023/12/08 01:00:00;;;;;;;22.13;9.82;;;1.30;99.90;;;;;;4124739;28;20046;-79
2023/12/08 01:02:07;;;;;;;21.63;8.65;;;1.30;99.90;;;;;;4110628;28;20101;-79
2023/12/08 01:04:09;;;;;;;21.05;9.90;;;1.30;99.90;;;;;;4115269;28;20046;-79
2023/12/08 01:06:12;;;;;;;20.60;9.25;;;1.30;99.90;;;;;;4127238;28;20043;-79
2023/12/08 01:08:13;;;;;;;20.75;8.88;;;1.30;99.90;;;;;;4120728;28;20047;-79
2023/12/08 01:10:20;;;;;;;21.63;10.75;;;1.20;99.90;;;;;;4111548;28;20054;-79
2023/12/08 01:12:22;;;;;;;24.90;9.80;;;1.30;99.90;;;;;;4112989;28;20043;-79
2023/12/08 01:14:24;;;;;;;21.95;10.40;;;1.20;99.90;;;;;;4126384;28;20061;-79
2023/12/08 01:16:24;;;;;;;19.27;9.48;;;1.30;99.90;;;;;;4126708;28;20038;-79
2023/12/08 01:18:28;;;;;;;21.70;8.68;;;1.20;99.90;;;;;;4125765;28;20058;-79
2023/12/08 01:20:29;;;;;;;19.17;9.82;;;1.30;99.90;;;;;;4126606;28;20419;-79
2023/12/08 01:22:30;;;;;;;21.02;9.25;;;1.20;99.90;;;;;;4112025;28;20094;-79
2023/12/08 01:24:30;;;;;;;20.38;9.80;;;1.20;99.90;;;;;;4110863;28;20054;-79
2023/12/08 01:26:32;;;;;;;22.40;8.93;;;1.20;99.90;;;;;;4112679;28;20051;-79
2023/12/08 01:28:34;;;;;;;22.15;10.30;;;1.20;99.90;;;;;;4109848;29;20428;-79
2023/12/08 01:30:37;;;;;;;20.80;9.85;;;1.20;99.90;;;;;;4122115;28;20042;-79
2023/12/08 01:32:38;;;;;;;25.35;10.32;;;1.30;99.90;;;;;;4125855;28;20053;-79
2023/12/08 01:34:39;;;;;;;22.98;9.32;;;1.20;99.90;;;;;;4116939;28;20043;-79
2023/12/08 01:36:41;;;;;;;21.75;10.27;;;1.20;99.90;;;;;;4110879;28;20047;-79
2023/12/08 01:38:45;;;;;;;19.52;8.38;;;1.30;99.90;;;;;;4109810;28;20124;-79
2023/12/08 01:40:47;;;;;;;20.23;8.98;;;1.20;99.90;;;;;;4110960;28;20051;-79
2023/12/08 01:42:50;;;;;;;24.40;9.95;;;1.20;99.90;;;;;;4110626;28;20047;-79
2023/12/08 01:44:50;;;;;;;22.67;9.20;;;1.20;99.90;;;;;;4111046;28;20047;-79
2023/12/08 01:46:52;;;;;;;20.38;9.55;;;1.20;99.90;;;;;;4111796;28;20125;-79
2023/12/08 01:48:55;;;;;;;19.52;8.85;;;1.20;99.90;;;;;;4110281;28;20493;-79
2023/12/08 01:50:57;;;;;;;22.23;10.73;;;1.20;99.90;;;;;;4110279;28;20063;-79
2023/12/08 01:53:00;;;;;;;20.85;9.73;;;1.30;99.90;;;;;;4110187;28;20118;-79
2023/12/08 01:55:03;;;;;;;21.98;9.55;;;1.30;99.90;;;;;;4111400;28;20489;-79
2023/12/08 01:57:10;;;;;;;18.85;8.77;;;1.20;99.90;;;;;;4110266;28;20051;-79
2023/12/08 01:59:12;;;;;;;22.02;9.27;;;1.20;99.90;;;;;;4125104;28;20051;-79
2023/12/08 02:01:14;;;;;;;20.33;9.73;;;1.30;99.90;;;;;;4125215;28;20047;-79
2023/12/08 02:03:16;;;;;;;23.58;10.07;;;1.50;99.90;;;;;;4124927;28;20082;-79
2023/12/08 02:05:19;;;;;;;22.80;9.85;;;1.20;99.90;;;;;;4110330;28;20397;-79
2023/12/08 02:07:21;;;;;;;22.17;10.23;;;1.30;99.90;;;;;;4109744;28;20038;-79
2023/12/08 02:09:23;;;;;;;23.08;10.45;;;1.20;99.90;;;;;;4110474;28;20047;-79
2023/12/08 02:11:26;;;;;;;25.88;11.00;;;1.20;99.90;;;;;;4111373;28;20055;-79
2023/12/08 02:13:26;;;;;;;23.33;9.85;;;1.30;99.90;;;;;;4119277;28;20113;-79
2023/12/08 02:15:29;;;;;;;23.80;10.55;;;1.20;99.90;;;;;;4126732;28;20051;-79
2023/12/08 02:17:38;;;;;;;21.48;10.25;;;1.30;99.90;;;;;;4126472;28;20406;-79
2023/12/08 02:19:41;;;;;;;25.35;10.65;;;1.20;99.90;;;;;;4126552;28;20047;-79
2023/12/08 02:21:42;;;;;;;21.80;9.50;;;1.20;99.90;;;;;;4125371;28;20054;-79
2023/12/08 02:23:48;;;;;;;25.17;10.40;;;1.20;99.90;;;;;;4126777;28;20058;-79
2023/12/08 02:25:55;;;;;;;26.92;10.80;;;1.20;99.90;;;;;;4125396;28;20395;-79
2023/12/08 02:27:57;;;;;;;23.40;10.52;;;1.20;99.90;;;;;;4126900;28;20042;-79
2023/12/08 02:29:57;;;;;;;24.83;10.35;;;1.20;99.90;;;;;;4116303;28;20047;-79
2023/12/08 02:32:19;;;;;;;28.52;10.48;;;1.20;99.90;;;;;;4110306;28;20053;-79
2023/12/08 02:34:25;;;;;;;22.77;9.98;;;1.20;99.90;;;;;;4125538;28;20051;-79
2023/12/08 02:36:26;;;;;;;23.95;10.85;;;1.20;99.90;;;;;;4115051;28;20054;-79
2023/12/08 02:38:35;;;;;;;22.50;9.57;;;1.20;99.90;;;;;;4110688;28;20058;-79
2023/12/08 02:40:38;;;;;;;22.17;10.05;;;1.20;99.90;;;;;;4110223;28;20070;-79
2023/12/08 02:42:39;;;;;;;24.08;10.55;;;1.20;99.90;;;;;;4109127;29;20051;-79
2023/12/08 02:44:41;;;;;;;21.13;9.73;;;1.20;99.90;;;;;;4119751;28;20506;-79
2023/12/08 02:46:47;;;;;;;22.20;10.35;;;1.20;99.90;;;;;;4125298;28;20051;-79
2023/12/08 02:48:49;;;;;;;22.15;9.95;;;1.20;99.90;;;;;;4119695;28;20075;-78
2023/12/08 02:50:51;;;;;;;24.95;10.55;;;1.20;99.90;;;;;;4110006;28;20043;-79
2023/12/08 02:52:54;;;;;;;19.50;10.00;;;1.20;99.90;;;;;;4113700;28;20050;-79
2023/12/08 02:54:56;;;;;;;22.45;10.82;;;1.60;99.90;;;;;;4126389;28;20050;-78
2023/12/08 02:57:02;;;;;;;21.98;10.13;;;1.20;99.90;;;;;;4124259;28;20042;-79
2023/12/08 02:59:04;;;;;;;19.45;9.75;;;1.20;99.90;;;;;;4109359;28;20091;-79
2023/12/08 03:01:05;;;;;;;22.95;10.13;;;1.20;99.90;;;;;;4109853;28;20051;-79
2023/12/08 03:03:06;;;;;;;24.42;10.70;;;1.20;99.90;;;;;;4109666;28;20122;-79
2023/12/08 03:05:09;;;;;;;24.55;10.15;;;1.20;99.90;;;;;;4109657;28;20039;-79
2023/12/08 03:07:10;;;;;;;21.13;9.23;;;1.20;99.90;;;;;;4110020;28;20122;-79
2023/12/08 03:09:12;;;;;;;21.90;9.27;;;1.30;99.90;;;;;;4108309;28;20047;-79
2023/12/08 03:11:12;;;;;;;21.90;9.38;;;1.20;99.90;;;;;;4115470;28;20093;-79
2023/12/08 03:13:13;;;;;;;21.67;9.70;;;1.20;99.90;;;;;;4125693;28;20050;-79
2023/12/08 03:15:23;;;;;;;22.17;9.63;;;1.20;99.90;;;;;;4125637;28;20050;-79
2023/12/08 03:17:25;;;;;;;23.15;9.45;;;1.20;99.90;;;;;;4124492;28;20047;-79
2023/12/08 03:19:25;;;;;;;25.73;9.50;;;1.20;99.90;;;;;;4124613;28;20043;-79
2023/12/08 03:21:34;;;;;;;21.27;9.02;;;1.20;99.90;;;;;;4121670;28;20041;-79
2023/12/08 03:23:35;;;;;;;19.50;9.48;;;1.20;99.90;;;;;;4109806;28;20440;-79
2023/12/08 03:25:36;;;;;;;21.35;9.98;;;1.80;99.90;;;;;;4108619;28;20054;-79
2023/12/08 03:27:45;;;;;;;22.30;9.32;;;1.20;99.90;;;;;;4108703;28;20051;-79
2023/12/08 03:29:47;;;;;;;22.40;9.93;;;1.20;99.90;;;;;;4109484;28;20039;-79
2023/12/08 03:31:55;;;;;;;20.10;9.50;;;1.20;99.90;;;;;;4109747;28;20450;-79
2023/12/08 03:33:57;;;;;;;20.65;9.07;;;1.20;99.90;;;;;;4112332;28;20071;-79
2023/12/08 03:35:58;;;;;;;27.00;10.35;;;2.10;99.90;;;;;;4124603;28;20051;-79
2023/12/08 03:37:58;;;;;;;25.60;9.65;;;1.20;99.90;;;;;;4125043;28;20506;-79
2023/12/08 03:39:59;;;;;;;22.17;9.07;;;1.20;99.90;;;;;;4124859;28;20085;-79
2023/12/08 03:42:00;;;;;;;21.50;9.05;;;1.20;99.90;;;;;;4110329;28;20081;-79
2023/12/08 03:44:01;;;;;;;20.13;9.02;;;1.20;99.90;;;;;;4109359;28;20063;-79
2023/12/08 03:46:02;;;;;;;24.08;9.48;;;1.20;99.90;;;;;;4109229;28;20476;-79
2023/12/08 03:48:03;;;;;;;18.63;9.55;;;1.20;99.90;;;;;;4108431;28;20099;-79
2023/12/08 03:50:04;;;;;;;18.70;9.18;;;1.20;99.90;;;;;;4108435;28;20051;-79
2023/12/08 03:52:05;;;;;;;18.85;8.55;;;1.20;99.90;;;;;;4108883;28;20051;-79
2023/12/08 03:54:06;;;;;;;22.48;10.07;;;1.20;99.90;;;;;;4109108;28;20492;-79
2023/12/08 03:56:15;;;;;;;25.20;10.55;;;1.20;99.90;;;;;;4108657;28;20385;-79
2023/12/08 03:58:18;;;;;;;21.75;9.40;;;1.20;99.90;;;;;;4109396;28;20104;-79
2023/12/08 04:00:19;;;;;;;23.58;11.05;;;1.60;99.90;;;;;;4109033;28;20404;-79
2023/12/08 04:02:19;;;;;;;18.85;9.68;;;1.20;99.90;;;;;;4108346;28;20167;-79
2023/12/08 04:04:21;;;;;;;16.50;8.30;;;1.20;99.90;;;;;;4108422;28;20195;-79
2023/12/08 04:06:25;;;;;;;19.90;8.65;;;1.20;99.90;;;;;;4111053;28;20074;-79
2023/12/08 04:08:30;;;;;;;17.23;8.30;;;1.20;99.90;;;;;;4124607;28;20053;-79
2023/12/08 04:10:31;;;;;;;22.50;9.00;;;1.20;99.90;;;;;;4120636;28;20051;-79
2023/12/08 04:12:32;;;;;;;18.80;8.65;;;1.20;99.90;;;;;;4108633;28;20163;-79
2023/12/08 04:14:33;;;;;;;18.95;9.23;;;1.20;99.90;;;;;;4108776;28;20259;-78
2023/12/08 04:16:35;;;;;;;21.48;9.82;;;1.20;99.90;;;;;;4124880;28;20050;-79
2023/12/08 04:18:41;;;;;;;20.40;8.98;;;1.20;99.90;;;;;;4124721;28;20054;-79
2023/12/08 04:20:44;;;;;;;20.30;8.27;;;1.20;99.90;;;;;;4110398;28;20050;-78
2023/12/08 04:22:46;;;;;;;20.33;9.73;;;1.30;99.90;;;;;;4107497;29;20059;-79
2023/12/08 04:24:50;;;;;;;23.15;10.60;;;1.20;99.90;;;;;;4118216;28;20034;-79
2023/12/08 04:26:53;;;;;;;21.67;10.15;;;1.20;99.90;;;;;;4125294;28;20043;-79
2023/12/08 04:28:54;;;;;;;20.77;9.60;;;1.20;99.90;;;;;;4124371;28;20580;-78
2023/12/08 04:30:54;;;;;;;21.60;9.52;;;1.20;99.90;;;;;;4126916;28;20490;-78
2023/12/08 04:33:06;;;;;;;22.80;8.95;;;1.20;99.90;;;;;;4130734;28;20038;-79
2023/12/08 04:35:09;;;;;;;22.58;9.35;;;1.20;99.90;;;;;;4115425;28;20054;-79
2023/12/08 04:37:10;;;;;;;19.08;8.65;;;1.20;99.90;;;;;;4118144;28;20090;-79
2023/12/08 04:39:10;;;;;;;19.40;9.25;;;1.10;99.90;;;;;;4130329;28;20043;-79
2023/12/08 04:41:13;;;;;;;21.27;9.75;;;1.10;99.90;;;;;;4124982;28;20131;-79
2023/12/08 04:43:14;;;;;;;19.77;9.30;;;1.10;99.90;;;;;;4114025;28;20035;-79
2023/12/08 04:45:30;;;;;;;23.63;10.13;;;1.10;99.90;;;;;;4113905;28;20108;-78
2023/12/08 04:47:31;;;;;;;19.42;8.95;;;1.90;99.90;;;;;;4112506;28;20047;-79
2023/12/08 04:49:32;;;;;;;19.10;9.45;;;1.00;99.90;;;;;;4114723;28;20642;-79
2023/12/08 04:51:35;;;;;;;23.50;9.45;;;1.00;99.90;;;;;;4112557;29;20047;-79
2023/12/08 04:53:37;;;;;;;22.83;9.70;;;1.00;99.90;;;;;;4112562;28;20489;-79
2023/12/08 04:55:38;;;;;;;21.35;9.07;;;1.00;99.90;;;;;;4112941;28;20043;-79
2023/12/08 04:57:39;;;;;;;24.70;10.35;;;0.90;99.90;;;;;;4116726;28;20134;-79
2023/12/08 04:59:40;;;;;;;21.33;8.88;;;0.90;99.90;;;;;;4119211;28;20039;-79
2023/12/08 05:01:40;;;;;;;24.55;9.65;;;0.90;99.90;;;;;;4127827;28;20074;-79
2023/12/08 05:03:41;;;;;;;23.40;8.93;;;0.90;99.90;;;;;;4113251;28;20130;-79
2023/12/08 05:05:54;;;;;;;21.48;8.77;;;0.90;99.90;;;;;;4122466;28;20058;-79
2023/12/08 05:07:56;;;;;;;24.05;10.50;;;0.90;99.90;;;;;;4129028;28;20038;-79
2023/12/08 05:09:57;;;;;;;25.33;9.77;;;0.80;99.90;;;;;;4128327;28;20081;-79
2023/12/08 05:11:59;;;;;;;21.38;9.27;;;0.80;99.90;;;;;;4129204;28;20047;-79
2023/12/08 05:14:00;;;;;;;21.00;9.52;;;0.90;99.90;;;;;;4117214;28;20154;-79
2023/12/08 05:16:01;;;;;;;22.23;10.43;;;0.80;99.90;;;;;;4116237;28;20038;-79
2023/12/08 05:18:01;;;;;;;19.73;9.00;;;0.80;99.90;;;;;;4127096;28;20045;-79
2023/12/08 05:20:06;;;;;;;20.02;9.07;;;1.00;99.90;;;;;;4127815;28;20074;-79
2023/12/08 05:22:07;;;;;;;24.27;9.68;;;0.80;99.90;;;;;;4115487;28;20369;-79
2023/12/08 05:24:10;;;;;;;23.67;9.68;;;0.80;99.90;;;;;;4112872;28;20507;-79
2023/12/08 05:26:12;;;;;;;21.05;9.57;;;0.70;99.90;;;;;;4111931;28;20050;-79
2023/12/08 05:28:14;;;;;;;23.27;10.00;;;0.80;99.90;;;;;;4112552;28;20051;-79
2023/12/08 05:30:15;;;;;;;26.02;9.75;;;0.80;99.90;;;;;;4111814;28;20043;-79
2023/12/08 05:32:16;;;;;;;19.48;8.73;;;0.80;99.90;;;;;;4112507;28;20073;-79
2023/12/08 05:34:18;;;;;;;21.92;9.43;;;0.80;99.90;;;;;;4120033;28;20054;-79
2023/12/08 05:36:22;;;;;;;22.52;9.13;;;0.80;99.90;;;;;;4127964;28;20047;-79
2023/12/08 05:38:23;;;;;;;21.45;9.55;;;0.70;99.90;;;;;;4126409;28;20059;-79
2023/12/08 05:40:24;;;;;;;28.45;11.30;;;0.70;99.90;;;;;;4112850;28;20047;-79
2023/12/08 05:42:28;;;;;;;23.50;10.68;;;0.70;99.90;;;;;;4111233;28;20051;-79
2023/12/08 05:44:30;;;;;;;23.13;10.27;;;0.80;99.90;;;;;;4112115;28;20078;-79
2023/12/08 05:46:35;;;;;;;23.13;9.98;;;0.70;99.90;;;;;;4113858;28;20174;-80
2023/12/08 05:48:38;;;;;;;24.17;10.50;;;0.70;99.90;;;;;;4127561;28;20074;-80
2023/12/08 05:50:39;;;;;;;22.77;10.15;;;0.70;99.90;;;;;;4128616;28;20061;-79
2023/12/08 05:52:41;;;;;;;25.35;10.50;;;0.70;99.90;;;;;;4128126;28;20515;-79
2023/12/08 05:54:41;;;;;;;24.88;11.05;;;0.70;99.90;;;;;;4128160;28;20042;-79
2023/12/08 05:56:50;;;;;;;26.35;10.50;;;0.70;99.90;;;;;;4128573;28;20050;-79
2023/12/08 05:58:51;;;;;;;26.00;10.10;;;0.70;99.90;;;;;;4127780;28;20105;-79
2023/12/08 06:00:52;;;;;;;24.13;10.77;;;0.70;99.90;;;;;;4128397;28;20047;-79
2023/12/08 06:03:00;;;;;;;22.17;10.02;;;0.70;99.90;;;;;;4128253;28;20051;-79
2023/12/08 06:05:04;;;;;;;22.02;9.85;;;0.70;99.90;;;;;;4128338;28;20058;-79
2023/12/08 06:07:06;;;;;;;21.50;10.02;;;0.70;99.90;;;;;;4128421;28;20067;-79
2023/12/08 06:09:09;;;;;;;21.52;9.45;;;0.70;99.90;;;;;;4127760;28;20049;-79
2023/12/08 06:11:10;;;;;;;24.08;10.25;;;0.70;99.90;;;;;;4127530;28;20106;-79
2023/12/08 06:13:13;;;;;;;26.10;11.27;;;0.70;99.90;;;;;;4127851;28;20058;-79
2023/12/08 06:15:16;;;;;;;23.65;10.45;;;0.70;99.90;;;;;;4126675;28;20055;-79
2023/12/08 06:17:16;;;;;;;24.00;10.68;;;0.70;99.90;;;;;;4127082;28;20057;-79
2023/12/08 06:19:17;;;;;;;24.25;10.02;;;0.60;99.90;;;;;;4127890;28;20078;-79
2023/12/08 06:21:22;;;;;;;23.35;10.02;;;1.40;99.90;;;;;;4127687;28;20039;-79
2023/12/08 06:23:23;;;;;;;26.05;10.35;;;0.80;99.90;;;;;;4127310;28;20047;-79
2023/12/08 06:25:24;;;;;;;27.45;10.00;;;0.60;99.90;;;;;;4128152;28;20501;-79
2023/12/08 06:27:28;;;;;;;21.65;9.95;;;0.60;99.90;;;;;;4128913;28;20077;-79
2023/12/08 06:29:33;;;;;;;20.58;9.60;;;0.60;99.90;;;;;;4129347;28;20070;-79
2023/12/08 06:31:43;;;;;;;23.83;10.27;;;0.60;99.90;;;;;;4128463;28;20039;-79
2023/12/08 06:33:53;;;;;;;23.98;9.57;;;0.60;99.90;;;;;;4116592;28;20058;-79
2023/12/08 06:36:04;;;;;;;23.38;9.85;;;0.60;99.90;;;;;;4128372;28;20042;-79
2023/12/08 06:38:10;;;;;;;25.27;11.00;;;0.60;99.90;;;;;;4130014;28;20050;-79
2023/12/08 06:40:12;;;;;;;29.33;11.65;;;0.60;99.90;;;;;;4129703;28;20086;-79
2023/12/08 06:42:18;;;;;;;25.48;11.48;;;0.60;99.90;;;;;;4131785;28;20046;-79
2023/12/08 06:44:21;;;;;;;24.45;9.77;;;0.60;99.90;;;;;;4130737;28;20057;-79
2023/12/08 06:46:21;;;;;;;25.35;10.35;;;0.60;99.90;;;;;;4128790;28;20078;-79
2023/12/08 06:48:28;;;;;;;24.52;10.57;;;0.60;99.90;;;;;;4129573;28;20488;-79
2023/12/08 06:50:30;;;;;;;24.45;11.23;;;0.50;99.90;;;;;;4129927;28;20163;-79
2023/12/08 06:52:32;;;;;;;26.20;10.82;;;0.60;99.90;;;;;;4129056;28;20043;-79
2023/12/08 06:54:35;;;;;;;25.23;10.52;;;0.60;99.90;;;;;;4129100;28;20054;-79
2023/12/08 06:56:41;;;;;;;23.90;11.02;;;0.60;99.90;;;;;;4129532;28;20051;-79
2023/12/08 06:58:44;;;;;;;25.20;9.73;;;0.60;99.90;;;;;;4128985;28;20070;-79
2023/12/08 07:00:44;;;;;;;27.65;10.93;;;0.50;99.90;;;;;;4129424;28;20043;-79
2023/12/08 07:02:48;;;;;;;23.08;9.65;;;0.60;99.90;;;;;;4129013;28;20047;-79
2023/12/08 07:04:51;;;;;;;25.88;10.00;;;0.60;99.90;;;;;;4129731;28;20035;-79
2023/12/08 07:06:59;;;;;;;23.27;9.73;;;0.60;99.90;;;;;;4128589;28;20057;-79
2023/12/08 07:09:00;;;;;;;28.27;11.63;;;0.60;99.90;;;;;;4129600;28;20039;-79
2023/12/08 07:11:01;;;;;;;28.98;11.07;;;0.60;99.90;;;;;;4128698;28;20043;-79
2023/12/08 07:13:02;;;;;;;27.25;10.65;;;1.10;99.90;;;;;;4129740;28;20047;-79
2023/12/08 07:15:04;;;;;;;22.65;9.77;;;0.60;99.90;;;;;;4129222;28;20054;-79
2023/12/08 07:17:06;;;;;;;29.55;11.80;;;0.60;99.90;;;;;;4129006;28;20053;-78
2023/12/08 07:19:08;;;;;;;30.85;11.77;;;0.60;99.90;;;;;;4136879;28;20149;-77
2023/12/08 07:21:11;;;;;;;23.00;10.80;;;0.50;99.90;;;;;;4130503;28;20054;-78
2023/12/08 07:23:16;;;;;;;33.53;12.10;;;0.60;99.90;;;;;;4130068;28;20047;-78
2023/12/08 07:25:18;;;;;;;27.00;10.23;;;0.50;99.90;;;;;;4131123;28;20031;-77
2023/12/08 07:27:22;;;;;;;25.25;10.75;;;0.60;99.90;;;;;;4132595;28;20046;-78
2023/12/08 07:29:28;;;;;;;26.15;10.20;;;0.60;99.90;;;;;;4131945;28;20042;-78
2023/12/08 07:31:29;;;;;;;24.83;11.65;;;0.60;99.90;;;;;;4131581;28;20124;-78
2023/12/08 07:33:30;;;;;;;23.55;10.48;;;0.60;99.90;;;;;;4131438;28;20047;-78
2023/12/08 07:35:34;;;;;;;27.92;11.05;;;0.60;99.90;;;;;;4131138;28;20050;-78
2023/12/08 07:37:40;;;;;;;23.67;10.35;;;0.60;99.90;;;;;;4130611;28;20054;-78
2023/12/08 07:39:42;;;;;;;24.67;10.48;;;1.60;99.90;;;;;;4130600;28;20035;-79
2023/12/08 07:41:44;;;;;;;29.95;10.43;;;0.50;99.90;;;;;;4129539;28;20035;-78
2023/12/08 07:43:48;;;;;;;23.58;10.57;;;0.60;99.90;;;;;;4128675;28;20118;-79
2023/12/08 07:46:00;;;;;;;27.45;11.38;;;0.60;99.90;;;;;;4129393;28;20039;-78
2023/12/08 07:48:05;;;;;;;30.42;12.02;;;0.60;99.90;;;;;;4130318;28;20074;-78
2023/12/08 07:50:11;;;;;;;23.75;10.23;;;0.60;99.90;;;;;;4129131;28;20051;-79
2023/12/08 07:52:15;;;;;;;30.13;10.85;;;0.60;99.90;;;;;;4129645;28;20051;-78
2023/12/08 07:54:16;;;;;;;22.50;10.80;;;0.60;99.90;;;;;;4129599;28;20399;-78
2023/12/08 07:56:20;;;;;;;26.08;10.55;;;0.60;99.90;;;;;;4129306;28;20054;-79
2023/12/08 07:58:26;;;;;;;32.90;11.60;;;0.60;99.90;;;;;;4128396;28;20438;-78
2023/12/08 08:00:36;;;;;;;25.90;11.63;;;0.60;99.90;;;;;;4129127;28;20038;-78
2023/12/08 08:02:43;;;;;;;25.50;10.32;;;0.60;99.90;;;;;;4129154;28;20051;-78
2023/12/08 08:04:45;;;;;;;27.27;11.65;;;0.60;99.90;;;;;;4128479;28;20043;-78
2023/12/08 08:06:47;;;;;;;27.88;11.25;;;0.60;99.90;;;;;;4132158;28;20078;-78
2023/12/08 08:08:49;;;;;;;22.55;10.35;;;0.60;99.90;;;;;;4131988;28;20053;-79
2023/12/08 08:10:59;;;;;;;23.92;10.60;;;0.60;99.90;;;;;;4146677;28;20097;-79
2023/12/08 08:13:02;;;;;;;26.98;12.20;;;0.60;99.90;;;;;;4131971;28;20043;-79
2023/12/08 08:15:04;;;;;;;27.48;12.65;;;0.70;99.90;;;;;;4132319;28;20055;-79
2023/12/08 08:17:05;;;;;;;26.58;11.57;;;0.70;99.90;;;;;;4132101;28;20074;-79
2023/12/08 08:19:08;;;;;;;25.35;11.32;;;0.40;99.90;;;;;;4132360;28;20043;-78
2023/12/08 08:21:10;;;;;;;25.85;12.35;;;0.60;99.90;;;;;;4132543;28;20042;-78
2023/12/08 08:23:19;;;;;;;30.67;12.75;;;0.70;99.90;;;;;;4130775;28;20046;-78
2023/12/08 08:25:21;;;;;;;28.05;12.10;;;0.70;99.90;;;;;;4131803;28;20039;-78
2023/12/08 08:27:28;;;;;;;26.58;13.02;;;0.70;99.90;;;;;;4131822;28;20054;-79
2023/12/08 08:29:31;;;;;;;25.30;10.52;;;0.70;99.90;;;;;;4132255;28;20034;-78
2023/12/08 08:31:33;;;;;;;28.17;11.57;;;0.70;99.90;;;;;;4131708;28;20046;-79
2023/12/08 08:33:44;;;;;;;30.35;11.80;;;0.70;99.90;;;;;;4131398;28;20098;-79
2023/12/08 08:35:51;;;;;;;27.00;12.07;;;0.70;99.90;;;;;;4130998;28;20058;-79
2023/12/08 08:37:58;;;;;;;30.45;10.95;;;0.70;99.90;;;;;;4131106;28;20050;-79
2023/12/08 08:40:00;;;;;;;35.10;12.63;;;0.70;99.90;;;;;;4130696;28;20047;-79
2023/12/08 08:42:04;;;;;;;27.42;11.90;;;0.70;99.90;;;;;;4131235;28;20511;-79
2023/12/08 08:44:06;;;;;;;30.27;12.00;;;0.70;99.90;;;;;;4131464;28;20047;-79
2023/12/08 08:46:07;;;;;;;29.45;12.15;;;0.70;99.90;;;;;;4130934;28;20042;-79
2023/12/08 08:48:12;;;;;;;27.63;11.27;;;0.70;99.90;;;;;;4130821;28;20043;-79
2023/12/08 08:50:14;;;;;;;26.50;11.63;;;0.70;99.90;;;;;;4131298;28;20038;-79
2023/12/08 08:52:16;;;;;;;30.25;11.63;;;1.00;99.90;;;;;;4131266;28;20413;-79
2023/12/08 08:54:17;;;;;;;25.08;11.13;;;0.70;99.90;;;;;;4146013;28;20432;-79
2023/12/08 08:56:23;;;;;;;30.98;13.15;;;0.70;99.90;;;;;;4129782;28;20110;-79
2023/12/08 08:58:25;;;;;;;25.65;11.30;;;0.70;99.90;;;;;;4131220;28;20039;-79
2023/12/08 09:00:31;;;;;;;32.50;12.50;;;0.80;99.90;;;;;;4129875;28;20107;-79
2023/12/08 09:02:38;;;;;;;28.60;11.88;;;2.00;99.90;;;;;;4129495;28;20046;-79
2023/12/08 09:04:41;;;;;;;30.88;11.82;;;0.80;99.90;;;;;;4112830;28;20054;-79
2023/12/08 09:06:50;;;;;;;26.88;11.95;;;0.80;99.90;;;;;;4129619;28;20105;-79
2023/12/08 09:08:52;;;;;;;;;;;0.80;99.90;;;;;;4129958;28;20050;-79
2023/12/08 09:10:55;;;;;;;33.28;11.55;;;0.80;99.90;;;;;;4129266;28;19928;-79
2023/12/08 09:12:55;;;;;;;32.75;11.88;;;0.80;99.90;;;;;;4129843;28;20039;-79
2023/12/08 09:14:56;;;;;;;28.70;11.73;;;0.80;99.90;;;;;;4129239;28;20538;-79
2023/12/08 09:16:58;;;;;;;29.05;12.63;;;0.80;99.90;;;;;;4127887;28;20039;-79
2023/12/08 09:19:00;;;;;;;26.40;12.05;;;0.80;99.90;;;;;;4129256;28;20038;-79
2023/12/08 09:21:02;;;;;;;30.20;12.10;;;0.80;99.90;;;;;;4128578;28;20038;-79
2023/12/08 09:23:03;;;;;;;26.88;11.60;;;0.90;99.90;;;;;;4128018;28;20070;-79
2023/12/08 09:25:11;;;;;;;29.63;12.48;;;0.80;99.90;;;;;;4128445;28;20098;-79
2023/12/08 09:27:12;;;;;;;28.70;10.43;;;2.00;99.90;;;;;;4129394;28;20047;-79
2023/12/08 09:29:13;;;;;;;31.95;14.13;;;0.90;99.90;;;;;;4128658;28;20073;-79
2023/12/08 09:31:21;;;;;;;27.58;12.18;;;0.90;99.90;;;;;;4127437;28;20423;-79
2023/12/08 09:33:23;;;;;;;26.80;11.63;;;0.90;99.90;;;;;;4127381;28;20122;-79
2023/12/08 09:35:25;;;;;;;29.15;12.38;;;0.90;99.90;;;;;;4129758;28;20047;-79
2023/12/08 09:37:25;;;;;;;29.52;12.18;;;0.90;99.90;;;;;;4129250;28;20054;-79
2023/12/08 09:39:33;;;;;;;27.27;11.20;;;0.90;99.90;;;;;;4129425;28;20047;-79
2023/12/08 09:41:39;;;;;;;28.35;12.15;;;0.90;99.90;;;;;;4128601;28;20069;-79
2023/12/08 09:43:46;;;;;;;29.67;11.45;;;0.90;99.90;;;;;;4128219;28;20412;-79
2023/12/08 09:45:47;;;;;;;28.58;12.32;;;0.90;99.90;;;;;;4128451;28;20047;-79
2023/12/08 09:47:57;;;;;;;28.15;12.00;;;1.00;99.90;;;;;;4126650;28;20043;-79
2023/12/08 09:50:00;;;;;;;29.70;11.27;;;0.90;99.90;;;;;;4128948;28;20125;-79
2023/12/08 09:52:02;;;;;;;26.10;10.88;;;1.00;99.90;;;;;;4128176;28;20122;-79
2023/12/08 09:54:05;;;;;;;28.10;11.07;;;1.00;99.90;;;;;;4128352;28;20055;-79
2023/12/08 09:56:09;;;;;;;25.75;11.73;;;1.00;99.90;;;;;;4128264;28;20050;-79
2023/12/08 09:58:18;;;;;;;26.67;12.05;;;1.00;99.90;;;;;;4127537;28;20054;-79
2023/12/08 10:00:22;;;;;;;26.98;11.77;;;1.00;99.90;;;;;;4128615;28;20098;-79
2023/12/08 10:02:22;;;;;;;26.05;11.13;;;1.20;99.90;;;;;;4128259;28;20102;-79
2023/12/08 10:04:26;;;;;;;26.88;11.93;;;1.00;99.90;;;;;;4128385;28;20070;-79
2023/12/08 10:06:28;;;;;;;27.70;10.95;;;1.00;99.90;;;;;;4128367;28;20047;-79
2023/12/08 10:08:37;;;;;;;24.60;11.43;;;1.00;99.90;;;;;;4129398;28;20043;-79
2023/12/08 10:10:39;;;;;;;32.83;12.85;;;1.00;99.90;;;;;;4129014;28;20062;-79
2023/12/08 10:12:42;;;;;;;28.65;11.77;;;1.00;99.90;;;;;;4129218;28;20086;-79
2023/12/08 10:14:58;;;;;;;24.08;11.27;;;1.00;99.90;;;;;;4128181;28;20059;-79
2023/12/08 10:17:02;;;;;;;25.92;11.10;;;1.00;99.90;;;;;;4129349;28;20046;-79
2023/12/08 10:19:09;;;;;;;32.85;11.63;;;1.00;99.90;;;;;;4127479;28;20051;-79
2023/12/08 10:21:16;;;;;;;27.15;11.45;;;1.20;99.90;;;;;;4128857;28;20050;-79
2023/12/08 10:23:22;;;;;;;30.42;10.98;;;1.00;99.90;;;;;;4128043;28;20047;-79
2023/12/08 10:25:24;;;;;;;29.50;12.35;;;1.00;99.90;;;;;;4127964;28;20123;-79
2023/12/08 10:27:34;;;;;;;24.67;11.07;;;1.10;99.90;;;;;;4127169;28;20063;-79
2023/12/08 10:29:36;;;;;;;31.85;12.63;;;1.00;99.90;;;;;;4127673;28;20074;-79
2023/12/08 10:31:41;;;;;;;25.52;11.45;;;1.10;99.90;;;;;;4125515;28;20070;-79
2023/12/08 10:33:42;;;;;;;31.33;12.05;;;1.10;99.90;;;;;;4126427;28;20050;-78
2023/12/08 10:35:44;;;;;;;29.35;12.65;;;1.10;99.90;;;;;;4127289;28;20053;-79